This is the latest recevied weather packets stored in our database for station/object W1LBM. If no packets are shown the sender has not sent any weather packets the latest 10 day(s).
| Time | Temp. | Humidity | Pressure | Rain* | Wind** | Luminosity | Snow |
|---|---|---|---|---|---|---|---|
| 1777894766 | 11.67° C | 49% | 1014.5 hPa | 0 mm | - | 68 W/m² | - |
| 1777894463 | 11.11° C | 51% | 1014.7 hPa | 0 mm | - | 107 W/m² | - |
| 1777894161 | 10° C | 52% | 1014.5 hPa | 0 mm | - | 60 W/m² | - |
| 1777893857 | 10° C | 55% | 1014.6 hPa | 0 mm | - | 53 W/m² | - |
| 1777893554 | 9.44° C | 56% | 1014.7 hPa | 0 mm | - | 57 W/m² | - |
| 1777893250 | 9.44° C | 57% | 1014.6 hPa | 0 mm | - | 70 W/m² | - |
| 1777892947 | 8.89° C | 59% | 1014.4 hPa | 0 mm | - | 81 W/m² | - |
| 1777892643 | 8.33° C | 59% | 1014.5 hPa | 0 mm | - | 60 W/m² | - |
| 1777892339 | 7.78° C | 60% | 1014.6 hPa | 0 mm | - | 38 W/m² | - |
| 1777892035 | 7.78° C | 62% | 1014.4 hPa | 0 mm | - | 64 W/m² | - |
| 1777891733 | 7.78° C | 60% | 1014.6 hPa | 0 mm | - | 50 W/m² | - |
| 1777891429 | 6.67° C | 65% | 1014.5 hPa | 0 mm | - | 52 W/m² | - |
| 1777891125 | 5° C | 70% | 1014.6 hPa | 0 mm | - | 46 W/m² | - |
| 1777890820 | 5° C | 70% | 1014.6 hPa | 0 mm | - | 31 W/m² | - |
| 1777890516 | 5° C | 70% | 1014.5 hPa | 0 mm | - | 28 W/m² | - |
| 1777890211 | 4.44° C | 71% | 1014.6 hPa | 0 mm | - | 24 W/m² | - |
| 1777889908 | 4.44° C | 70% | 1014.6 hPa | 0 mm | - | 20 W/m² | - |
| 1777889606 | 4.44° C | 70% | 1014.5 hPa | 0 mm | - | 17 W/m² | - |
| 1777889303 | 3.89° C | 71% | 1014.3 hPa | 0 mm | - | 15 W/m² | - |
| 1777889000 | 3.89° C | 71% | 1014.4 hPa | 0 mm | - | 13 W/m² | - |
| 1777888698 | 3.89° C | 72% | 1014.4 hPa | 0 mm | - | 10 W/m² | - |
| 1777888394 | 3.89° C | 72% | 1014.4 hPa | 0 mm | - | 8 W/m² | - |
| 1777888090 | 3.89° C | 72% | 1014.4 hPa | 0 mm | - | 6 W/m² | - |
| 1777887788 | 3.89° C | 73% | 1014.4 hPa | 0 mm | - | 4 W/m² | - |
| 1777887485 | 3.89° C | 71% | 1014.2 hPa | 0 mm | - | 2 W/m² | - |
* Rain latest hour (hover to see other rain measurements)
** Current wind speed in m/s (hover to see current wind gust speed)